Yreka, CA

11:26 PM PDT on September 22, 2014 (GMT -0700)
Trinity Center | Change Station
CLOSE
Current Station
Airport
Location: Trinity Center,
Elevation: 2388 ft
Nearby Weather Stations
Active Advisory: Fire Weather Warning

Elev 2388 ft 40.98 °N, 122.69 °W | Updated 11 minutes ago

Partly Cloudy
Partly Cloudy
64 °F
Feels Like 64 °F
N
5
Wind Variable Wind from West

Today
High -- | Low -- °F
--% Chance of Precip.
Yesterday
High -- | Low -- °F
Precip. -- in
6:58 AM 7:07 PM
Waning Crescent, 1% visible
Pressure 30.00 in
Visibility 10.0 miles
Clouds Clear
Dew Point 50 °F
Humidity 59%
Rainfall 0.00 in
Snow Depth 1 in , 0 in , 1 in
UV 0 out of 12
Pollen 4.00 out of 12
Air Quality Not available.
Flu Activity Not available.
METAR KO86 230615Z AUTO 27004KT 10SM CLR 18/10 A3000 RMK AO1

More Conditions Fewer Conditions

Pressure 30.00 in
Visibility 10.0 miles
Clouds Clear
Dew Point 50 °F
Humidity 59%
Rainfall 0.00 in
Snow Depth 1 in , 0 in , 1 in
UV 0 out of 12
Pollen 4.00 out of 12
Air Quality Not available.
Flu Activity Not available.
METAR KO86 230615Z AUTO 27004KT 10SM CLR 18/10 A3000 RMK AO1

More Conditions Fewer Conditions

10-Day Weather Forecast

Almanac

Astronomy

Sep. 22, 2014 Rise Set
Actual Time 6:58 AM PDT 7:07 PM PDT
Civil Twilight 6:30 AM PDT 7:35 PM PDT
Nautical Twilight 5:57 AM PDT 8:07 PM PDT
Astronomical Twilight 5:24 AM PDT 8:40 PM PDT
Moon 5:30 AM PDT (9/22) 6:18 PM PDT (9/22)
Length of Visible Light 13h 04m
Length of Day
12h 09m
Tomorrow will be 2m 47s shorter.
Waning Crescent, 1% of the Moon is Illuminated
Sep 23
Waning Crescent
Sep 24
New
Oct 1
First Quarter
Oct 8
Full
Oct 15
Last Quarter

Yesterday's Extremes

State Highs State Lows

Community

WunderPhotos

Upload Photos

1,755,608 photos uploaded!

Nearby

Snow Depth

Station Depth Elevation
Echo Peak 1 in 7800 ft
Independence Lake 0 in 8450 ft
Burnside Lake 1 in 8139 ft
Fallen Leaf 0 in 6300 ft
Leavitt Meadows 1 in 7200 ft

Earthquake Activity

City Distance Mag. Time & Date
Eureka, California 102 miles 2.9 1:33 PM PDT
2014-09-20
Minimum magnitude displayed is 2.5.

Coastal Water Temperatures

Place Temperature
No Stations Reporting

Nearby Weather Stations